Dernières infos :  

21/08/2017  Mise à jour des tableaux d'analyses décadaires
02/08/2017 Mise en ligne de la synthèse climatologique de Juillet 2017 : 
CLIQUEZ ICI
01/08/2017  Mise à jour des tableaux d'analyses décadaires, mensuelles et annuelles : rubrique climatologie

31/07/2017 Vidéo du violent orage de dimanche soir 30/07 : CLIQUEZ ICI   

Si l'entête du tableau ne s'affiche pas correctement, => actualisez la page (F5 avec Internet Explorer, Chrome...).
Utilisez l'ascenseur sur la droite des lignes du tableau pour faire défiler verticalement les jours du mois.

TABLEAU DES DONNEES COMPLETES NOAA de NOVEMBRE 2016

DATE TEMPERATURE
sous abri
TEMPARATURE 
au sol
VENT  et  Indice de Refroidissement Eolien  PRECIPITATIONS (en mm/m2)
et Intensité
PRESSION ATMOSPHERIQUE (en hPa) HUMIDITE de l'AIR RADIATIONS SOLAIRES (en W/m2)
Mini Moy. Maxi Mini Moy. Maxi Moyen Rafale I.R.E.
Minii
Précip. jour Cumul mois Intensité Maxi Mini Moy. Maxi Mini Moy. Maxi Pic maxi du jour Total jour
01/11/2016 6.4° 10.8° 18.7° 4.4° 10.5° 22.2° 4km/h dir S 27.4km/h dir SSE 5.7° 0 0 1020.1 1022.3 1024.8 65% 89% 98% 478 31 365
02/11/2016 6.8° 8.9° 10.7° 4.4° 8.6° 12.2° 3.9km/h dir NO 16.1km/h dir ONO 6.8° 0.2 0.2 1020.1 1020.6 1021.3 89% 94% 97% 213 8 280
03/11/2016 2.1° 7.1° 11.6° -0.6° 17.8° 6.3km/h dir NO 22.5km/h dir N 1.8° 0 0.2 1019.2 1020.2 1021.4 70% 89.1% 95% 517 28 893
04/11/2016 0.8° 9.2° 16.2° -1.7° 8.8° 18.3° 8.7km/h dir SSE 41.8km/h dir SSE 0.2° 0.4 0.6 1010 1015 1019.9 71% 85.1% 97% 466 21 560
05/11/2016 7.9° 12° 15.6° 7.8° 11.6° 15.6° 8.7km/h dir SSE 37km/h dir SSE 6.4° 30.2 30.8 79mm/h 1000.4 1003.4 1009.9 88% 93% 96% 141 4 892
06/11/2016 2.3° 6.1° 9.2° 5.8° 12.2° 3.1km/h dir ONO 32.2km/h dir O 1.8° 3.2 34 14.2mm/h 1004 1005.1 1007.5 72% 91.6% 96% 452 11 880
07/11/2016 2.8° -0.6° 15.6° 2.9km/h dir SE 14.5km/h dir S 2.6° 0.4 34.4 1007.6 1009.1 1010.3 58% 84.4% 96% 612 23 928
08/11/2016 1.4° 4.1° 7.1° -1.1° 3.6° 9.4° 4.2km/h dir SE 19.3km/h dir ONO 0.1° 4.4 38.8 5mm/h 1008.9 1012.1 1015.2 78% 90.3% 95% 362 10 106
09/11/2016 1.1° 4.1° 7.4° 3.6° 6.7° 9km/h dir SSE 48.3km/h dir S -1.5° 8 46.8 113mm/h 1005.1 1009.7 1014.7 83% 92.8% 95% 162 6 017
10/11/2016 6.4° 7.3° 8.3° 6.1° 6.9° 8.9° 9km/h dir SSE 32.2km/h dir S 3.9° 11.4 58.2 11mm/h 1013.1 1014 1015 91% 94% 96% 141 5 184
11/11/2016 4.2° 6.8° 8.4° 1.7° 6.3° 10.6° 5.6km/h dir ONO 29km/h dir O 3.2° 4.8 63 12mm/h 1012.4 1018.4 1023.7 78% 90.6% 96% 563 11 055
12/11/2016 -0.7° 2.8° 7.9° -2.8° 2.3° 12.8° 1.3km/h dir ENE 9.7km/h dir SO -0.7° 0.2 63.2 1021.7 1022.9 1023.9 69% 91.1% 97% 485 20 833
13/11/2016 2.8° 5.3° 7.2° 2.2° 5.3° 8.3° 2.4km/h dir SE 16.1km/h dir N 2.6° 2.6 65.8 2mm/h 1021.4 1022.8 1025.5 85% 93.8% 96% 169 8 070
14/11/2016 3.5° 4.7° 5.5° 2.8° 4.7° 7.2° 6.6km/h dir NO 19.3km/h dir N 1.2° 0.2 66 1025.5 1029.7 1032.8 87% 92.1% 95% 223 6 825
15/11/2016 5.1° 9.2° -1.1° 5.5° 13.9° 1.9km/h dir NO 12.9km/h dir NO 0 66 1030.8 1032.2 1033.8 68% 83.6% 94% 418 21 654
16/11/2016 7.8° 10.7° 7.9° 12.2° 3.2km/h dir SE 12.9km/h dir ESE 4.1° 0 66 1022.2 1026.1 1030.7 85% 90.8% 95% 255 9 729
17/11/2016 8.6° 11.4° 16.5° 7.2° 11.1° 18.9° 6.9km/h dir SSE 41.8km/h dir SSE 7.4° 0 66 1010.8 1016.8 1022.2 68% 85.7% 95% 371 14 552
18/11/2016 10.2° 12.1° 13.7° 8.9° 11.4° 13.9° 15.1km/h dir SSE 61.2km/h dir S 7.9° 3.2 69.2 5.6mm/h 1008 1009.4 1011.1 79% 85.6% 92% 176 6 018
19/11/2016 5.4° 8.8° 12.3° 2.2° 15.6° 6.6km/h dir S 45.1km/h dir OSO 4.2° 1.6 70.8 4.2mm/h 1007.8 1011.2 1014.7 58% 79.9% 93% 554 16 465
20/11/2016 7.8° 13.3° 17.1° 7.2° 12.5° 19.4° 17.5km/h dir SSE 62.8km/h dir S 5.9° 0 70.8 1002.7 1005.2 1007.8 49% 62.4% 77% 396 18 601
21/11/2016 10.5° 15.6° 17.7° 10° 14.5° 16.7° 10.9km/h dir S 46.7km/h dir SSE 9.3° 4.4 75.2 23.4mm/h 998.4 1000.5 1006 54% 67.5% 91% 134 4 681
22/11/2016 8.6° 9.4° 10.5° 8.3° 9.2° 10.6° 4.2km/h dir ENE 20.9km/h dir NNE 7.8° 41.4 116.6 17.4mm/h 1005.9 1009.4 1011.7 92% 95.5% 97% 144 3 820
23/11/2016 6.6° 7.9° 9.2° 6.1° 8.1° 10° 2.4km/h dir S 11.3km/h dir ONO 6.4° 0.2 116.8 1010.5 1011.9 1013.5 96% 96.9% 97% 142 6 192
24/11/2016 7.4° 9.4° 11.9° 7.2° 9.3° 12.8° 4.2km/h dir ONO 33.8km/h dir SSE 5.1° 0.2 117 1009 1011.3 1013.4 94% 96.3% 97% 165 5 899
25/11/2016 6.6° 14.4° 6.7° 8.8° 15.6° 3.9km/h dir S 25.7km/h dir SSE 4.3° 0 117 1007.4 1011.9 1015.9 72% 92.5% 97% 306 12 719
26/11/2016 3.6° 8.7° 14.3° 1.7° 8.1° 22.2° 1.6km/h dir E 11.3km/h dir SSO 3.6° 0 117 1015.7 1016.3 1017.1 75% 91% 97% 410 19 923
27/11/2016 3.8° 5.2° 7.1° 3.9° 5.5° 6.7° 4km/h dir NNE 25.7km/h dir N 2.6° 0.4 117.4 1014.7 1016.2 1017.5 92% 96.3% 97% 105 5 003
28/11/2016 1.3° 5.2° 8.3° -1.7° 13.3° 7.4km/h dir N 25.7km/h dir N -0.3° 0 117.4 1014.3 1016.3 1021.1 62% 81.2% 93% 369 20 452
29/11/2016 -1.5° 1.6° 6.1° -3.9° 10.6° 2.4km/h dir NO 11.3km/h dir ENE -2.2° 0 117.4 1021.1 1027 1032.6 70% 82.8% 93% 427 17 984
30/11/2016 -1.8° 2.1° 9.4° -4.4° 1.1° 13.3° 1.6km/h dir SE 8km/h dir 0 -2.9° 0 117.4 1032.6 1033.9 1036 70% 88.5% 96% 355 19 844

RETOUR ACCUEIL


Date de création : 02/12/2016 : 09:57
Catégorie : ARCHIVES 2002 à 2016 - ANNEES 2010 à 2019 - ANNEE 2016 - NOVEMBRE 2016
Page lue 458 fois


Réactions à cet article

Personne n'a encore laissé de commentaire.
Soyez donc le premier !